ADDS METAR Data INFO
IDs: Format: Raw Decoded Include TAF

Data at: 0345 UTC 20 Feb 2018

KSFQ 200335Z AUTO 00000KT 7SM OVC005 12/12 A3043 RMK AO2 T01200120
KSFQ 200315Z AUTO 00000KT 5SM BR SCT005 BKN020 OVC049 12/12 A3043 RMK AO2 T01210121
KSFQ 200255Z AUTO 00000KT 5SM BR SCT007 BKN049 OVC060 12/12 A3042 RMK AO2 T01200120
KSFQ 200235Z AUTO 00000KT 7SM OVC007 12/12 A3042 RMK AO2 T01190119
KSFQ 200215Z AUTO 00000KT 5SM DZ BKN007 BKN013 OVC065 12/12 A3043 RMK AO2 T01200120
KSFQ 200155Z AUTO 00000KT 4SM BR BKN007 BKN023 OVC065 12/12 A3042 RMK AO2 T01200120
KSFQ 200135Z AUTO 00000KT 5SM BR BKN007 OVC036 12/12 A3042 RMK AO2 T01200120
KSFQ 200115Z AUTO 00000KT 5SM BR OVC007 12/12 A3042 RMK AO2 T01200120
KSFQ 200055Z AUTO 26003KT 4SM BR BKN004 OVC007 12/12 A3042 RMK AO2 T01210121
KSFQ 200035Z AUTO 00000KT 4SM BR BKN004 OVC008 12/12 A3042 RMK AO2 T01210121
KSFQ 200015Z AUTO 00000KT 5SM BR SCT004 OVC008 12/12 A3042 RMK AO2 T01220122
KSFQ 192355Z AUTO 00000KT 5SM BR SCT004 BKN008 OVC040 12/12 A3042 RMK AO2 60003 T01220122 10137 20122
KSFQ 192335Z AUTO 00000KT 5SM BR BKN004 BKN008 OVC038 12/12 A3041 RMK AO2 T01230123
KSFQ 192315Z AUTO 00000KT 4SM BR OVC002 12/12 A3040 RMK AO2 T01240124
KSFQ 192255Z AUTO 28004KT 2SM BR OVC002 13/13 A3040 RMK AO2 T01260126
KSFQ 192235Z AUTO 00000KT 1 3/4SM BR OVC002 13/13 A3039 RMK AO2 T01280128
KSFQ 192215Z AUTO 26003KT 3SM BR OVC004 13/13 A3039 RMK AO2 T01300130
KSFQ 192155Z AUTO 27003KT 3SM BR OVC004 13/13 A3040 RMK AO2 T01310131
KSFQ 192135Z AUTO 29004KT 3SM BR OVC004 13/13 A3040 RMK AO2 T01320132
KSFQ 192115Z AUTO 28004KT 5SM BR OVC004 14/14 A3039 RMK AO2 T01360136
KSFQ 192055Z AUTO 25004KT 7SM OVC004 14/14 A3039 RMK AO2 60003 T01370137
KSFQ 192035Z AUTO 22004KT 7SM OVC004 14/14 A3040 RMK AO2 T01370137
KSFQ 192015Z AUTO 21004KT 7SM OVC004 14/14 A3039 RMK AO2 T01350135
KSFQ 191955Z AUTO 19004KT 7SM OVC004 13/13 A3040 RMK AO2 P0001 T01320132
KSFQ 191935Z AUTO 20003KT 4SM -DZ OVC004 13/13 A3040 RMK AO2 P0001 T01300130
KSFQ 191915Z AUTO 21003KT 7SM -DZ OVC004 13/13 A3040 RMK AO2 P0001 T01300130
KSFQ 191855Z AUTO 22003KT 5SM -RA OVC004 13/13 A3040 RMK AO2 P0002 T01280128
KSFQ 191835Z AUTO 19004KT 3SM DZ OVC004 13/13 A3040 RMK AO2 P0002 T01280128
KSFQ 191815Z AUTO 19004KT 2 1/2SM DZ OVC004 13/13 A3041 RMK AO2 P0001 T01260126
KSFQ 191755Z AUTO 20004KT 2 1/2SM DZ OVC004 13/13 A3043 RMK AO2 P0002 60019 T01250125 10125 20057
KSFQ 191735Z AUTO 14005KT 2 1/2SM DZ OVC004 12/12 A3043 RMK AO2 P0001 T01220122
KSFQ 191715Z AUTO 14005KT 3SM DZ OVC004 12/12 A3044 RMK AO2 P0001 T01200120
KSFQ 191655Z AUTO 14006KT 2 1/2SM DZ OVC004 12/12 A3045 RMK AO2 T01170117
KSFQ 191635Z AUTO 14006KT 3SM -DZ OVC004 12/12 A3045 RMK AO2 T01150115
KSFQ 191615Z AUTO 13007KT 5SM BR OVC004 11/11 A3046 RMK AO2 T01100110
KSFQ 191555Z AUTO 12007KT 4SM -RA BKN004 BKN014 OVC032 11/11 A3046 RMK AO2 P0004 T01070107
KSFQ 191535Z AUTO 11007KT 10SM RA SCT004 BKN014 OVC027 10/10 A3047 RMK AO2 P0001 T01020102
KSFQ 191515Z AUTO 11005KT 5SM RA BKN004 BKN008 OVC026 10/10 A3048 RMK AO2 P0001 T00950095
KSFQ 191455Z AUTO 11005KT 4SM -RA SCT004 BKN008 OVC034 09/09 A3048 RMK AO2 P0004 60013 T00870087
KSFQ 191435Z AUTO 11004KT 4SM -RA SCT004 BKN010 OVC045 08/08 A3050 RMK AO2 P0003 T00810081
KSFQ 191415Z AUTO 11006KT 3SM -RA OVC045 08/08 A3050 RMK AO2 P0002 T00770077
KSFQ 191355Z AUTO 09005KT 3SM RA OVC045 07/07 A3050 RMK AO2 P0004 T00700070
KSFQ 191335Z AUTO 09004KT 4SM -RA SCT018 OVC043 07/07 A3051 RMK AO2 P0003 T00680068
KSFQ 191315Z AUTO 09004KT 5SM RA SCT018 SCT025 OVC043 07/07 A3051 RMK AO2 P0001 T00650065
KSFQ 191255Z AUTO 08003KT 4SM RA BKN025 OVC032 06/06 A3052 RMK AO2 P0005 T00620062
KSFQ 191235Z AUTO 03004KT 4SM -RA OVC029 06/06 A3051 RMK AO2 P0003 T00610060
KSFQ 191215Z AUTO 00000KT 5SM -RA BKN029 OVC036 06/06 A3050 RMK AO2 P0001 T00590056
KSFQ 191155Z AUTO 08003KT 7SM -RA SCT032 OVC038 06/05 A3049 RMK AO2 P0001 60001 70001 T00570049 10061 20001
KSFQ 191135Z AUTO 09003KT 7SM RA SCT032 OVC040 06/05 A3049 RMK AO2 T00580045
KSFQ 191115Z AUTO 00000KT 10SM -DZ OVC039 06/04 A3049 RMK AO2 T00610042
KSFQ 191055Z AUTO 10003KT 10SM OVC042 06/04 A3048 RMK AO2 T00600040
KSFQ 191035Z AUTO 11005KT 10SM OVC044 06/04 A3047 RMK AO2 T00570039
KSFQ 191015Z AUTO 10004KT 10SM OVC046 05/04 A3049 RMK AO2 T00530036
KSFQ 190955Z AUTO 11003KT 10SM OVC046 05/03 A3048 RMK AO2 T00500032
KSFQ 190935Z AUTO 11003KT 10SM OVC046 05/03 A3048 RMK AO2 T00490030
KSFQ 190915Z AUTO 09005KT 10SM OVC048 05/03 A3048 RMK AO2 T00460030
KSFQ 190855Z AUTO 09003KT 10SM OVC050 05/03 A3048 RMK AO2 T00450032
KSFQ 190835Z AUTO 00000KT 10SM OVC050 04/04 A3049 RMK AO2 T00390035
KSFQ 190815Z AUTO 00000KT 10SM OVC050 03/03 A3049 RMK AO2 T00300029
KSFQ 190755Z AUTO 00000KT 10SM OVC050 02/02 A3050 RMK AO2 T00190019
KSFQ 190735Z AUTO 05003KT 10SM SCT050 01/01 A3049 RMK AO2 T00100009
KSFQ 190715Z AUTO 00000KT 10SM CLR 02/02 A3050 RMK AO2 T00200019
KSFQ 190655Z AUTO 07003KT 10SM CLR 02/01 A3050 RMK AO2 T00160014
KSFQ 190635Z AUTO 10003KT 10SM CLR 02/02 A3051 RMK AO2 T00200020
KSFQ 190615Z AUTO 09003KT 10SM CLR 01/01 A3051 RMK AO2 T00060006
KSFQ 190555Z AUTO 00000KT 10SM CLR 00/00 A3052 RMK AO2 T00030002 10050 20000
KSFQ 190535Z AUTO 00000KT 10SM CLR 00/00 A3052 RMK AO2 T00010001
KSFQ 190515Z AUTO 10003KT 10SM CLR 00/00 A3052 RMK AO2 T00040004
KSFQ 190455Z AUTO 00000KT 10SM CLR 00/00 A3053 RMK AO2 T00040002 401150003
KSFQ 190435Z AUTO 00000KT 10SM CLR 01/01 A3053 RMK AO2 T00080006
KSFQ 190415Z AUTO 00000KT 10SM CLR 01/01 A3052 RMK AO2 T00070005
KSFQ 190355Z AUTO 00000KT 10SM CLR 01/00 A3052 RMK AO2 T00090004
KSFQ 190335Z AUTO 00000KT 10SM CLR 02/01 A3052 RMK AO2 T00150007
KSFQ 190315Z AUTO 00000KT 10SM CLR 02/01 A3052 RMK AO2 T00200011
KSFQ 190255Z AUTO 00000KT 10SM CLR 02/01 A3051 RMK AO2 T00190011
KSFQ 190235Z AUTO 00000KT 10SM CLR 02/01 A3050 RMK AO2 T00190010
KSFQ 190215Z AUTO 00000KT 10SM CLR 02/01 A3050 RMK AO2 T00200008
KSFQ 190155Z AUTO 00000KT 10SM CLR 03/01 A3050 RMK AO2 T00250013
KSFQ 190135Z AUTO 00000KT 10SM CLR 03/01 A3049 RMK AO2 T00270012
KSFQ 190115Z AUTO 00000KT 10SM CLR 03/01 A3049 RMK AO2 T00280013
KSFQ 190055Z AUTO 00000KT 10SM CLR 04/02 A3048 RMK AO2 T00360015
KSFQ 190035Z AUTO 12003KT 10SM CLR 04/02 A3048 RMK AO2 T00410016
KSFQ 190015Z AUTO 00000KT 10SM CLR 05/01 A3047 RMK AO2 T00500014
KSFQ 182355Z AUTO 00000KT 10SM CLR 05/02 A3046 RMK AO2 T00510020 10115 20051
KSFQ 182335Z AUTO 00000KT 10SM CLR 06/02 A3045 RMK AO2 T00560024
KSFQ 182315Z AUTO 00000KT 10SM CLR 07/02 A3045 RMK AO2 T00650018
KSFQ 182255Z AUTO 00000KT 10SM CLR 08/01 A3045 RMK AO2 T00750010
KSFQ 182235Z AUTO 06003KT 10SM CLR 09/01 A3044 RMK AO2 T00850012
KSFQ 182215Z AUTO 04007KT 10SM CLR 09/01 A3044 RMK AO2 T00930010
KSFQ 182155Z AUTO 05007KT 10SM CLR 10/01 A3043 RMK AO2 T00990009
KSFQ 182135Z AUTO 06007KT 10SM CLR 11/02 A3043 RMK AO2 T01050015
KSFQ 182115Z AUTO 04007KT 10SM CLR 11/02 A3043 RMK AO2 T01050016
KSFQ 182055Z AUTO 08008KT 10SM CLR 11/02 A3042 RMK AO2 T01070019
KSFQ 182035Z AUTO 08008KT 10SM CLR 11/02 A3042 RMK AO2 T01070018
KSFQ 182015Z AUTO 06007G14KT 10SM CLR 11/02 A3041 RMK AO2 T01100021
KSFQ 181955Z AUTO 07009KT 10SM CLR 11/03 A3040 RMK AO2 T01120025
KSFQ 181935Z AUTO 04008KT 10SM SCT035 12/03 A3040 RMK AO2 T01150030
KSFQ 181915Z AUTO 04007KT 10SM SCT035 11/03 A3040 RMK AO2 T01110028
KSFQ 181855Z AUTO 06006KT 10SM SCT035 11/03 A3041 RMK AO2 T01100031
KSFQ 181835Z AUTO 05009KT 10SM CLR 11/03 A3041 RMK AO2 T01120031
KSFQ 181815Z AUTO 05008KT 10SM CLR 11/03 A3041 RMK AO2 T01110029
KSFQ 181755Z AUTO 04010G14KT 10SM CLR 11/03 A3041 RMK AO2 T01120034 10112 20031
KSFQ 181735Z AUTO 07006KT 10SM CLR 11/03 A3042 RMK AO2 T01090029
KSFQ 181715Z AUTO 03006G17KT 10SM CLR 11/03 A3042 RMK AO2 T01090029
KSFQ 181655Z AUTO 04011G17KT 10SM CLR 11/03 A3042 RMK AO2 T01090032
KSFQ 181635Z AUTO 04009KT 10SM CLR 11/03 A3042 RMK AO2 T01080033
KSFQ 181615Z AUTO 02010KT 10SM CLR 11/03 A3042 RMK AO2 T01050029
KSFQ 181555Z AUTO 03012G18KT 10SM CLR 10/03 A3041 RMK AO2 T01000034